CheckWX is a tool to help pilots better visualize weather data.  It is not intended as a substitute for an official pre-flight weather briefing.

16:55:40 UTC

SBBH METAR
Pampulha - Carlos Drummond de Andrade Airport
Belo Horizonte, Brazil
Current

56 mins ago

SBBH 231600Z 06007KT 9999 FEW045 SCT090 26/16 Q1018
Observed
Mar-23 @ 16:00 UTC
Wind
  • 060° at 7 KTS
Visibility
10,000+ meters
Flight Rules
VFR
Cloud Levels
  • Few at 4,500' AGL
  • Scattered at 9,000' AGL
Temperature
26°C / 79°F
Dewpoint
16°C / 61°F
Humidity
54%
Altimeter
30.06" Hg
Pressure
1017.92 hPa
Previous

2 hours ago

SBBH 231500Z 04005KT 9999 BKN045 BKN090 25/15 Q1019
Observed
Mar-23 @ 15:00 UTC
Wind
  • 040° at 5 KTS
Visibility
10,000+ meters
Flight Rules
VFR
Cloud Levels
  • Broken at 4,500' AGL
  • Broken at 9,000' AGL
Temperature
25°C / 77°F
Dewpoint
15°C / 59°F
Humidity
54%
Altimeter
30.09" Hg
Pressure
1018.92 hPa
Previous

3 hours ago

SBBH 231400Z 09008KT CAVOK 24/15 Q1020
Observed
Mar-23 @ 14:00 UTC
Wind
  • 090° at 8 KTS
Visibility
10,000+ meters
Flight Rules
VFR
Cloud Levels
  • Clear skies
Temperature
24°C / 75°F
Dewpoint
15°C / 59°F
Humidity
57%
Altimeter
30.12" Hg
Pressure
1019.92 hPa